sensor_id;sensor_type;location;lat;lon;timestamp;temperature;humidity
24426;DHT22;12611;44.446;26.000;2023-02-28T00:01:32;8.10;88.50
24426;DHT22;12611;44.446;26.000;2023-02-28T00:04:01;8.00;88.70
24426;DHT22;12611;44.446;26.000;2023-02-28T00:06:31;8.10;88.70
24426;DHT22;12611;44.446;26.000;2023-02-28T00:08:59;8.00;88.80
24426;DHT22;12611;44.446;26.000;2023-02-28T00:11:28;8.00;88.80
24426;DHT22;12611;44.446;26.000;2023-02-28T00:13:56;8.00;88.70
24426;DHT22;12611;44.446;26.000;2023-02-28T00:16:25;8.00;88.80
24426;DHT22;12611;44.446;26.000;2023-02-28T00:18:53;7.90;88.90
24426;DHT22;12611;44.446;26.000;2023-02-28T00:21:21;7.90;88.80
24426;DHT22;12611;44.446;26.000;2023-02-28T00:23:52;8.00;88.80
24426;DHT22;12611;44.446;26.000;2023-02-28T00:26:20;8.00;88.90
24426;DHT22;12611;44.446;26.000;2023-02-28T00:28:49;8.00;89.10
24426;DHT22;12611;44.446;26.000;2023-02-28T00:31:19;8.00;89.30
24426;DHT22;12611;44.446;26.000;2023-02-28T00:33:47;8.00;89.10
24426;DHT22;12611;44.446;26.000;2023-02-28T00:36:17;8.00;89.70
24426;DHT22;12611;44.446;26.000;2023-02-28T00:38:47;8.00;88.70
24426;DHT22;12611;44.446;26.000;2023-02-28T00:41:17;8.00;88.90
24426;DHT22;12611;44.446;26.000;2023-02-28T00:43:47;7.90;89.40
24426;DHT22;12611;44.446;26.000;2023-02-28T00:46:15;8.00;89.30
24426;DHT22;12611;44.446;26.000;2023-02-28T00:48:43;8.00;89.30
24426;DHT22;12611;44.446;26.000;2023-02-28T00:51:12;7.90;89.20
24426;DHT22;12611;44.446;26.000;2023-02-28T00:53:41;7.90;89.60
24426;DHT22;12611;44.446;26.000;2023-02-28T00:56:10;7.90;90.10
24426;DHT22;12611;44.446;26.000;2023-02-28T00:58:40;8.00;89.40
24426;DHT22;12611;44.446;26.000;2023-02-28T01:01:08;8.00;89.20
24426;DHT22;12611;44.446;26.000;2023-02-28T01:03:36;8.00;89.10
24426;DHT22;12611;44.446;26.000;2023-02-28T01:06:05;8.00;89.10
24426;DHT22;12611;44.446;26.000;2023-02-28T01:08:33;8.00;88.80
24426;DHT22;12611;44.446;26.000;2023-02-28T01:11:08;8.00;88.80
24426;DHT22;12611;44.446;26.000;2023-02-28T01:13:36;8.00;88.70
24426;DHT22;12611;44.446;26.000;2023-02-28T01:16:07;8.00;88.80
24426;DHT22;12611;44.446;26.000;2023-02-28T01:18:37;7.90;88.60
24426;DHT22;12611;44.446;26.000;2023-02-28T01:21:06;7.90;88.50
24426;DHT22;12611;44.446;26.000;2023-02-28T01:23:34;7.90;88.60
24426;DHT22;12611;44.446;26.000;2023-02-28T01:26:06;7.90;88.40
24426;DHT22;12611;44.446;26.000;2023-02-28T01:28:35;7.90;88.50
24426;DHT22;12611;44.446;26.000;2023-02-28T01:31:03;7.90;88.70
24426;DHT22;12611;44.446;26.000;2023-02-28T01:33:34;7.90;88.70
24426;DHT22;12611;44.446;26.000;2023-02-28T01:36:04;7.90;88.70
24426;DHT22;12611;44.446;26.000;2023-02-28T01:38:33;7.80;89.00
24426;DHT22;12611;44.446;26.000;2023-02-28T01:41:01;7.90;88.80
24426;DHT22;12611;44.446;26.000;2023-02-28T01:43:31;7.90;88.80
24426;DHT22;12611;44.446;26.000;2023-02-28T01:46:04;7.90;89.00
24426;DHT22;12611;44.446;26.000;2023-02-28T01:48:36;8.00;89.00
24426;DHT22;12611;44.446;26.000;2023-02-28T01:51:09;7.90;88.80
24426;DHT22;12611;44.446;26.000;2023-02-28T01:53:42;7.90;88.80
24426;DHT22;12611;44.446;26.000;2023-02-28T01:56:13;8.00;88.90
24426;DHT22;12611;44.446;26.000;2023-02-28T01:58:47;8.00;88.70
24426;DHT22;12611;44.446;26.000;2023-02-28T02:01:16;7.90;88.80
24426;DHT22;12611;44.446;26.000;2023-02-28T02:03:52;7.90;88.70
24426;DHT22;12611;44.446;26.000;2023-02-28T02:06:22;7.90;88.50
24426;DHT22;12611;44.446;26.000;2023-02-28T02:08:51;7.90;88.30
24426;DHT22;12611;44.446;26.000;2023-02-28T02:11:22;7.80;88.30
24426;DHT22;12611;44.446;26.000;2023-02-28T02:14:12;7.90;88.40
24426;DHT22;12611;44.446;26.000;2023-02-28T02:16:57;7.90;88.50
24426;DHT22;12611;44.446;26.000;2023-02-28T02:19:53;7.80;88.60
24426;DHT22;12611;44.446;26.000;2023-02-28T02:22:37;7.90;88.50
24426;DHT22;12611;44.446;26.000;2023-02-28T02:25:26;7.90;88.80
24426;DHT22;12611;44.446;26.000;2023-02-28T02:28:08;7.90;88.50
24426;DHT22;12611;44.446;26.000;2023-02-28T02:31:05;7.80;88.30
24426;DHT22;12611;44.446;26.000;2023-02-28T02:36:42;7.80;88.60
24426;DHT22;12611;44.446;26.000;2023-02-28T02:39:20;7.90;88.50
24426;DHT22;12611;44.446;26.000;2023-02-28T02:41:53;7.80;88.10
24426;DHT22;12611;44.446;26.000;2023-02-28T02:44:25;7.90;88.00
24426;DHT22;12611;44.446;26.000;2023-02-28T02:46:59;7.80;88.10
24426;DHT22;12611;44.446;26.000;2023-02-28T02:49:32;7.80;88.10
24426;DHT22;12611;44.446;26.000;2023-02-28T02:52:04;7.90;88.20
24426;DHT22;12611;44.446;26.000;2023-02-28T02:54:36;7.80;88.20
24426;DHT22;12611;44.446;26.000;2023-02-28T02:57:09;7.80;88.30
24426;DHT22;12611;44.446;26.000;2023-02-28T02:59:40;7.80;88.40
24426;DHT22;12611;44.446;26.000;2023-02-28T03:02:12;7.80;88.30
24426;DHT22;12611;44.446;26.000;2023-02-28T03:04:45;7.80;88.20
24426;DHT22;12611;44.446;26.000;2023-02-28T03:07:15;7.80;88.10
24426;DHT22;12611;44.446;26.000;2023-02-28T03:09:50;7.80;88.10
24426;DHT22;12611;44.446;26.000;2023-02-28T03:12:20;7.80;88.10
24426;DHT22;12611;44.446;26.000;2023-02-28T03:14:56;7.80;88.10
24426;DHT22;12611;44.446;26.000;2023-02-28T03:17:47;7.80;88.10
24426;DHT22;12611;44.446;26.000;2023-02-28T03:20:29;7.80;88.10
24426;DHT22;12611;44.446;26.000;2023-02-28T03:23:10;7.80;88.90
24426;DHT22;12611;44.446;26.000;2023-02-28T03:25:52;7.80;88.50
24426;DHT22;12611;44.446;26.000;2023-02-28T03:28:31;7.80;88.40
24426;DHT22;12611;44.446;26.000;2023-02-28T03:31:06;7.70;88.50
24426;DHT22;12611;44.446;26.000;2023-02-28T03:33:41;7.80;88.40
24426;DHT22;12611;44.446;26.000;2023-02-28T03:36:13;7.80;88.40
24426;DHT22;12611;44.446;26.000;2023-02-28T03:38:47;7.80;88.30
24426;DHT22;12611;44.446;26.000;2023-02-28T03:41:19;7.80;88.30
24426;DHT22;12611;44.446;26.000;2023-02-28T03:43:52;7.70;88.30
24426;DHT22;12611;44.446;26.000;2023-02-28T03:46:24;7.80;88.80
24426;DHT22;12611;44.446;26.000;2023-02-28T03:48:57;7.80;88.60
24426;DHT22;12611;44.446;26.000;2023-02-28T03:51:28;7.70;88.50
24426;DHT22;12611;44.446;26.000;2023-02-28T03:54:02;7.70;88.40
24426;DHT22;12611;44.446;26.000;2023-02-28T03:56:40;7.70;88.40
24426;DHT22;12611;44.446;26.000;2023-02-28T03:59:13;7.70;88.70
24426;DHT22;12611;44.446;26.000;2023-02-28T04:01:44;7.70;88.30
24426;DHT22;12611;44.446;26.000;2023-02-28T04:04:14;7.70;88.30
24426;DHT22;12611;44.446;26.000;2023-02-28T04:06:44;7.70;88.00
24426;DHT22;12611;44.446;26.000;2023-02-28T04:09:14;7.70;88.00
24426;DHT22;12611;44.446;26.000;2023-02-28T04:11:44;7.70;87.80
24426;DHT22;12611;44.446;26.000;2023-02-28T04:14:13;7.70;87.80
24426;DHT22;12611;44.446;26.000;2023-02-28T04:16:42;7.60;87.60
24426;DHT22;12611;44.446;26.000;2023-02-28T04:19:12;7.60;87.80
24426;DHT22;12611;44.446;26.000;2023-02-28T04:21:43;7.60;88.00
24426;DHT22;12611;44.446;26.000;2023-02-28T04:24:14;7.60;88.00
24426;DHT22;12611;44.446;26.000;2023-02-28T04:26:44;7.60;87.80
24426;DHT22;12611;44.446;26.000;2023-02-28T04:29:15;7.60;87.70
24426;DHT22;12611;44.446;26.000;2023-02-28T04:31:46;7.60;88.00
24426;DHT22;12611;44.446;26.000;2023-02-28T04:34:14;7.60;87.80
24426;DHT22;12611;44.446;26.000;2023-02-28T04:36:43;7.60;87.70
24426;DHT22;12611;44.446;26.000;2023-02-28T04:39:14;7.60;87.70
24426;DHT22;12611;44.446;26.000;2023-02-28T04:41:42;7.50;87.30
24426;DHT22;12611;44.446;26.000;2023-02-28T04:44:10;7.50;87.20
24426;DHT22;12611;44.446;26.000;2023-02-28T04:46:39;7.50;87.30
24426;DHT22;12611;44.446;26.000;2023-02-28T04:49:08;7.50;87.30
24426;DHT22;12611;44.446;26.000;2023-02-28T04:51:37;7.40;87.80
24426;DHT22;12611;44.446;26.000;2023-02-28T04:54:05;7.50;87.90
24426;DHT22;12611;44.446;26.000;2023-02-28T04:56:35;7.50;87.80
24426;DHT22;12611;44.446;26.000;2023-02-28T04:59:04;7.40;88.00
24426;DHT22;12611;44.446;26.000;2023-02-28T05:01:33;7.50;88.00
24426;DHT22;12611;44.446;26.000;2023-02-28T05:04:04;7.50;88.00
24426;DHT22;12611;44.446;26.000;2023-02-28T05:06:34;7.40;88.20
24426;DHT22;12611;44.446;26.000;2023-02-28T05:09:02;7.40;88.30
24426;DHT22;12611;44.446;26.000;2023-02-28T05:11:32;7.40;88.10
24426;DHT22;12611;44.446;26.000;2023-02-28T05:14:04;7.40;88.20
24426;DHT22;12611;44.446;26.000;2023-02-28T05:16:33;7.40;88.30
24426;DHT22;12611;44.446;26.000;2023-02-28T05:19:01;7.40;88.40
24426;DHT22;12611;44.446;26.000;2023-02-28T05:21:31;7.30;88.30
24426;DHT22;12611;44.446;26.000;2023-02-28T05:24:02;7.40;88.30
24426;DHT22;12611;44.446;26.000;2023-02-28T05:26:33;7.40;88.40
24426;DHT22;12611;44.446;26.000;2023-02-28T05:29:03;7.50;88.50
24426;DHT22;12611;44.446;26.000;2023-02-28T05:31:32;7.50;88.40
24426;DHT22;12611;44.446;26.000;2023-02-28T05:34:01;7.50;88.30
24426;DHT22;12611;44.446;26.000;2023-02-28T05:36:33;7.50;88.30
24426;DHT22;12611;44.446;26.000;2023-02-28T05:39:02;7.50;88.30
24426;DHT22;12611;44.446;26.000;2023-02-28T05:41:30;7.50;88.30
24426;DHT22;12611;44.446;26.000;2023-02-28T05:43:58;7.50;88.40
24426;DHT22;12611;44.446;26.000;2023-02-28T05:46:29;7.50;88.30
24426;DHT22;12611;44.446;26.000;2023-02-28T05:48:58;7.50;88.10
24426;DHT22;12611;44.446;26.000;2023-02-28T05:51:27;7.50;88.10
24426;DHT22;12611;44.446;26.000;2023-02-28T05:53:59;7.50;88.10
24426;DHT22;12611;44.446;26.000;2023-02-28T05:56:28;7.50;88.00
24426;DHT22;12611;44.446;26.000;2023-02-28T05:58:57;7.50;88.00
24426;DHT22;12611;44.446;26.000;2023-02-28T06:01:34;7.50;88.00
24426;DHT22;12611;44.446;26.000;2023-02-28T06:04:04;7.50;88.00
24426;DHT22;12611;44.446;26.000;2023-02-28T06:06:32;7.50;88.10
24426;DHT22;12611;44.446;26.000;2023-02-28T06:09:03;7.50;88.10
24426;DHT22;12611;44.446;26.000;2023-02-28T06:11:32;7.50;88.00
24426;DHT22;12611;44.446;26.000;2023-02-28T06:14:01;7.50;88.00
24426;DHT22;12611;44.446;26.000;2023-02-28T06:16:34;7.50;88.30
24426;DHT22;12611;44.446;26.000;2023-02-28T06:19:04;7.60;88.40
24426;DHT22;12611;44.446;26.000;2023-02-28T06:21:32;7.70;88.30
24426;DHT22;12611;44.446;26.000;2023-02-28T06:24:01;7.60;88.30
24426;DHT22;12611;44.446;26.000;2023-02-28T06:26:30;7.70;88.30
24426;DHT22;12611;44.446;26.000;2023-02-28T06:28:59;7.70;88.30
24426;DHT22;12611;44.446;26.000;2023-02-28T06:31:28;7.70;88.30
24426;DHT22;12611;44.446;26.000;2023-02-28T06:33:59;7.80;88.30
24426;DHT22;12611;44.446;26.000;2023-02-28T06:36:27;7.80;88.20
24426;DHT22;12611;44.446;26.000;2023-02-28T06:38:56;7.90;88.10
24426;DHT22;12611;44.446;26.000;2023-02-28T06:41:26;7.80;87.70
24426;DHT22;12611;44.446;26.000;2023-02-28T06:43:56;7.90;87.70
24426;DHT22;12611;44.446;26.000;2023-02-28T06:46:24;7.90;87.50
24426;DHT22;12611;44.446;26.000;2023-02-28T06:48:53;7.90;87.50
24426;DHT22;12611;44.446;26.000;2023-02-28T06:51:23;7.90;87.30
24426;DHT22;12611;44.446;26.000;2023-02-28T06:53:51;7.80;87.70
24426;DHT22;12611;44.446;26.000;2023-02-28T06:56:20;7.80;87.70
24426;DHT22;12611;44.446;26.000;2023-02-28T06:58:49;7.80;87.50
24426;DHT22;12611;44.446;26.000;2023-02-28T07:01:19;7.80;87.40
24426;DHT22;12611;44.446;26.000;2023-02-28T07:03:50;7.80;87.70
24426;DHT22;12611;44.446;26.000;2023-02-28T07:06:19;7.80;87.90
24426;DHT22;12611;44.446;26.000;2023-02-28T07:08:51;7.90;88.60
24426;DHT22;12611;44.446;26.000;2023-02-28T07:11:20;8.00;88.00
24426;DHT22;12611;44.446;26.000;2023-02-28T07:13:49;8.10;87.80
24426;DHT22;12611;44.446;26.000;2023-02-28T07:16:18;8.20;87.50
24426;DHT22;12611;44.446;26.000;2023-02-28T07:18:47;8.30;87.20
24426;DHT22;12611;44.446;26.000;2023-02-28T07:21:15;8.40;87.00
24426;DHT22;12611;44.446;26.000;2023-02-28T07:23:44;8.40;86.70
24426;DHT22;12611;44.446;26.000;2023-02-28T07:26:15;8.50;86.50
24426;DHT22;12611;44.446;26.000;2023-02-28T07:28:46;8.60;86.30
24426;DHT22;12611;44.446;26.000;2023-02-28T07:31:15;8.70;86.00
24426;DHT22;12611;44.446;26.000;2023-02-28T07:33:44;8.70;85.20
24426;DHT22;12611;44.446;26.000;2023-02-28T07:36:14;8.70;84.90
24426;DHT22;12611;44.446;26.000;2023-02-28T07:38:46;8.80;85.10
24426;DHT22;12611;44.446;26.000;2023-02-28T07:41:17;8.80;85.00
24426;DHT22;12611;44.446;26.000;2023-02-28T07:43:46;8.80;85.30
24426;DHT22;12611;44.446;26.000;2023-02-28T07:46:16;8.90;85.50
24426;DHT22;12611;44.446;26.000;2023-02-28T07:48:45;8.90;85.70
24426;DHT22;12611;44.446;26.000;2023-02-28T07:51:13;8.90;84.60
24426;DHT22;12611;44.446;26.000;2023-02-28T07:53:42;9.00;85.40
24426;DHT22;12611;44.446;26.000;2023-02-28T07:56:10;9.00;85.20
24426;DHT22;12611;44.446;26.000;2023-02-28T07:58:40;8.90;85.00
24426;DHT22;12611;44.446;26.000;2023-02-28T08:01:09;9.00;85.10
24426;DHT22;12611;44.446;26.000;2023-02-28T08:03:39;9.10;85.20
24426;DHT22;12611;44.446;26.000;2023-02-28T08:06:14;9.10;85.00
24426;DHT22;12611;44.446;26.000;2023-02-28T08:08:43;9.10;85.50
24426;DHT22;12611;44.446;26.000;2023-02-28T08:11:11;9.20;85.20
24426;DHT22;12611;44.446;26.000;2023-02-28T08:13:41;9.20;85.20
24426;DHT22;12611;44.446;26.000;2023-02-28T08:16:12;9.30;85.30
24426;DHT22;12611;44.446;26.000;2023-02-28T08:18:44;9.30;85.10
24426;DHT22;12611;44.446;26.000;2023-02-28T08:21:13;9.30;84.90
24426;DHT22;12611;44.446;26.000;2023-02-28T08:23:41;9.40;84.70
24426;DHT22;12611;44.446;26.000;2023-02-28T08:26:09;9.40;84.60
24426;DHT22;12611;44.446;26.000;2023-02-28T08:28:38;9.40;84.00
24426;DHT22;12611;44.446;26.000;2023-02-28T08:31:12;9.50;84.00
24426;DHT22;12611;44.446;26.000;2023-02-28T08:33:41;9.50;84.10
24426;DHT22;12611;44.446;26.000;2023-02-28T08:36:11;9.50;83.80
24426;DHT22;12611;44.446;26.000;2023-02-28T08:38:40;9.60;83.60
24426;DHT22;12611;44.446;26.000;2023-02-28T08:41:11;9.50;83.10
24426;DHT22;12611;44.446;26.000;2023-02-28T08:43:40;9.50;83.00
24426;DHT22;12611;44.446;26.000;2023-02-28T08:46:12;9.60;83.10
24426;DHT22;12611;44.446;26.000;2023-02-28T08:48:41;9.60;83.30
24426;DHT22;12611;44.446;26.000;2023-02-28T08:51:11;9.60;83.40
24426;DHT22;12611;44.446;26.000;2023-02-28T08:53:39;9.60;83.30
24426;DHT22;12611;44.446;26.000;2023-02-28T08:56:09;9.60;83.70
24426;DHT22;12611;44.446;26.000;2023-02-28T08:58:38;9.50;83.70
24426;DHT22;12611;44.446;26.000;2023-02-28T09:01:09;9.50;83.40
24426;DHT22;12611;44.446;26.000;2023-02-28T09:03:39;9.50;83.30
24426;DHT22;12611;44.446;26.000;2023-02-28T09:06:09;9.50;83.40
24426;DHT22;12611;44.446;26.000;2023-02-28T09:08:39;9.50;83.70
24426;DHT22;12611;44.446;26.000;2023-02-28T09:11:07;9.60;83.60
24426;DHT22;12611;44.446;26.000;2023-02-28T09:13:36;9.60;83.40
24426;DHT22;12611;44.446;26.000;2023-02-28T09:16:07;9.60;83.50
24426;DHT22;12611;44.446;26.000;2023-02-28T09:18:37;9.60;83.30
24426;DHT22;12611;44.446;26.000;2023-02-28T09:21:07;9.60;83.30
24426;DHT22;12611;44.446;26.000;2023-02-28T09:23:39;9.60;83.30
24426;DHT22;12611;44.446;26.000;2023-02-28T09:26:11;9.70;83.40
24426;DHT22;12611;44.446;26.000;2023-02-28T09:28:40;9.70;83.60
24426;DHT22;12611;44.446;26.000;2023-02-28T09:31:12;9.70;83.30
24426;DHT22;12611;44.446;26.000;2023-02-28T09:33:42;9.70;83.60
24426;DHT22;12611;44.446;26.000;2023-02-28T09:36:10;9.70;82.90
24426;DHT22;12611;44.446;26.000;2023-02-28T09:38:39;9.70;83.40
24426;DHT22;12611;44.446;26.000;2023-02-28T09:41:13;9.70;83.40
24426;DHT22;12611;44.446;26.000;2023-02-28T09:43:45;9.80;83.60
24426;DHT22;12611;44.446;26.000;2023-02-28T09:46:28;9.80;83.20
24426;DHT22;12611;44.446;26.000;2023-02-28T09:49:03;9.70;83.20
24426;DHT22;12611;44.446;26.000;2023-02-28T09:51:49;9.70;83.40
24426;DHT22;12611;44.446;26.000;2023-02-28T09:54:21;9.80;83.60
24426;DHT22;12611;44.446;26.000;2023-02-28T09:56:51;9.80;83.60
24426;DHT22;12611;44.446;26.000;2023-02-28T09:59:32;9.80;83.50
24426;DHT22;12611;44.446;26.000;2023-02-28T10:02:09;9.80;83.10
24426;DHT22;12611;44.446;26.000;2023-02-28T10:04:47;9.70;83.00
24426;DHT22;12611;44.446;26.000;2023-02-28T10:07:37;9.60;82.70
24426;DHT22;12611;44.446;26.000;2023-02-28T10:10:18;9.60;83.10
24426;DHT22;12611;44.446;26.000;2023-02-28T10:12:53;9.60;83.20
24426;DHT22;12611;44.446;26.000;2023-02-28T10:15:24;9.60;83.30
24426;DHT22;12611;44.446;26.000;2023-02-28T10:17:57;9.60;83.20
24426;DHT22;12611;44.446;26.000;2023-02-28T10:20:39;9.70;83.70
24426;DHT22;12611;44.446;26.000;2023-02-28T10:23:13;9.70;83.80
24426;DHT22;12611;44.446;26.000;2023-02-28T10:25:46;9.70;83.50
24426;DHT22;12611;44.446;26.000;2023-02-28T10:28:17;9.80;83.80
24426;DHT22;12611;44.446;26.000;2023-02-28T10:30:48;9.80;83.70
24426;DHT22;12611;44.446;26.000;2023-02-28T10:33:23;9.80;83.40
24426;DHT22;12611;44.446;26.000;2023-02-28T10:35:54;9.90;83.50
24426;DHT22;12611;44.446;26.000;2023-02-28T10:38:24;9.90;83.40
24426;DHT22;12611;44.446;26.000;2023-02-28T10:41:04;9.90;83.00
24426;DHT22;12611;44.446;26.000;2023-02-28T10:43:33;9.90;83.70
24426;DHT22;12611;44.446;26.000;2023-02-28T10:46:04;10.00;82.90
24426;DHT22;12611;44.446;26.000;2023-02-28T10:48:40;10.00;83.20
24426;DHT22;12611;44.446;26.000;2023-02-28T10:51:12;10.00;83.40
24426;DHT22;12611;44.446;26.000;2023-02-28T10:53:48;10.10;83.30
24426;DHT22;12611;44.446;26.000;2023-02-28T10:56:28;10.00;82.60
24426;DHT22;12611;44.446;26.000;2023-02-28T10:59:00;10.10;82.90
24426;DHT22;12611;44.446;26.000;2023-02-28T11:01:36;10.10;82.60
24426;DHT22;12611;44.446;26.000;2023-02-28T11:04:17;10.20;82.80
24426;DHT22;12611;44.446;26.000;2023-02-28T11:06:48;10.30;82.70
24426;DHT22;12611;44.446;26.000;2023-02-28T11:09:28;10.30;82.30
24426;DHT22;12611;44.446;26.000;2023-02-28T11:11:57;10.40;82.70
24426;DHT22;12611;44.446;26.000;2023-02-28T11:14:27;10.40;82.30
24426;DHT22;12611;44.446;26.000;2023-02-28T11:17:00;10.50;82.20
24426;DHT22;12611;44.446;26.000;2023-02-28T11:19:33;10.50;82.20
24426;DHT22;12611;44.446;26.000;2023-02-28T11:22:07;10.60;81.80
24426;DHT22;12611;44.446;26.000;2023-02-28T11:24:40;10.60;81.70
24426;DHT22;12611;44.446;26.000;2023-02-28T11:27:25;10.60;81.70
24426;DHT22;12611;44.446;26.000;2023-02-28T11:29:54;10.50;81.30
24426;DHT22;12611;44.446;26.000;2023-02-28T11:32:24;10.50;81.40
24426;DHT22;12611;44.446;26.000;2023-02-28T11:35:03;10.50;81.50
24426;DHT22;12611;44.446;26.000;2023-02-28T11:37:34;10.60;81.60
24426;DHT22;12611;44.446;26.000;2023-02-28T11:40:08;10.60;81.40
24426;DHT22;12611;44.446;26.000;2023-02-28T11:42:50;10.60;81.40
24426;DHT22;12611;44.446;26.000;2023-02-28T11:45:35;10.60;81.50
24426;DHT22;12611;44.446;26.000;2023-02-28T11:48:14;10.60;81.60
24426;DHT22;12611;44.446;26.000;2023-02-28T11:50:52;10.70;81.40
24426;DHT22;12611;44.446;26.000;2023-02-28T11:53:40;10.70;81.10
24426;DHT22;12611;44.446;26.000;2023-02-28T11:56:18;10.60;81.10
24426;DHT22;12611;44.446;26.000;2023-02-28T11:59:12;10.70;81.30
24426;DHT22;12611;44.446;26.000;2023-02-28T12:02:24;10.60;81.30
24426;DHT22;12611;44.446;26.000;2023-02-28T12:05:10;10.60;81.40
24426;DHT22;12611;44.446;26.000;2023-02-28T12:07:47;10.60;81.60
24426;DHT22;12611;44.446;26.000;2023-02-28T12:10:22;10.60;81.30
24426;DHT22;12611;44.446;26.000;2023-02-28T12:13:12;10.60;81.20
24426;DHT22;12611;44.446;26.000;2023-02-28T12:18:51;10.50;81.40
24426;DHT22;12611;44.446;26.000;2023-02-28T12:21:30;10.60;81.60
24426;DHT22;12611;44.446;26.000;2023-02-28T12:24:11;10.50;81.70
24426;DHT22;12611;44.446;26.000;2023-02-28T12:26:43;10.50;81.40
24426;DHT22;12611;44.446;26.000;2023-02-28T12:29:17;10.60;81.80
24426;DHT22;12611;44.446;26.000;2023-02-28T12:31:49;10.60;81.90
24426;DHT22;12611;44.446;26.000;2023-02-28T12:34:24;10.60;81.80
24426;DHT22;12611;44.446;26.000;2023-02-28T12:36:56;10.60;81.60
24426;DHT22;12611;44.446;26.000;2023-02-28T12:39:29;10.60;81.70
24426;DHT22;12611;44.446;26.000;2023-02-28T12:42:19;10.60;81.40
24426;DHT22;12611;44.446;26.000;2023-02-28T12:44:54;10.70;81.20
24426;DHT22;12611;44.446;26.000;2023-02-28T12:47:23;10.70;81.30
24426;DHT22;12611;44.446;26.000;2023-02-28T12:49:55;10.60;81.50
24426;DHT22;12611;44.446;26.000;2023-02-28T12:52:35;10.70;81.40
24426;DHT22;12611;44.446;26.000;2023-02-28T12:55:13;10.70;81.50
24426;DHT22;12611;44.446;26.000;2023-02-28T12:57:50;10.70;81.30
24426;DHT22;12611;44.446;26.000;2023-02-28T13:00:24;10.70;81.40
24426;DHT22;12611;44.446;26.000;2023-02-28T13:03:11;10.80;81.30
24426;DHT22;12611;44.446;26.000;2023-02-28T13:06:10;10.70;81.40
24426;DHT22;12611;44.446;26.000;2023-02-28T13:09:08;10.80;81.30
24426;DHT22;12611;44.446;26.000;2023-02-28T13:11:43;10.70;81.00
24426;DHT22;12611;44.446;26.000;2023-02-28T13:14:24;10.80;81.00
24426;DHT22;12611;44.446;26.000;2023-02-28T13:16:57;10.70;80.80
24426;DHT22;12611;44.446;26.000;2023-02-28T13:19:30;10.80;80.80
24426;DHT22;12611;44.446;26.000;2023-02-28T13:21:59;10.70;80.80
24426;DHT22;12611;44.446;26.000;2023-02-28T13:24:44;10.70;81.00
24426;DHT22;12611;44.446;26.000;2023-02-28T13:27:31;10.70;81.00
24426;DHT22;12611;44.446;26.000;2023-02-28T13:30:49;10.60;81.30
24426;DHT22;12611;44.446;26.000;2023-02-28T13:33:23;10.60;81.10
24426;DHT22;12611;44.446;26.000;2023-02-28T13:36:07;10.60;81.10
24426;DHT22;12611;44.446;26.000;2023-02-28T13:38:40;10.60;81.90
24426;DHT22;12611;44.446;26.000;2023-02-28T13:41:43;10.60;82.00
24426;DHT22;12611;44.446;26.000;2023-02-28T13:44:15;10.60;81.90
24426;DHT22;12611;44.446;26.000;2023-02-28T13:47:24;10.70;81.60
24426;DHT22;12611;44.446;26.000;2023-02-28T13:50:21;10.70;81.20
24426;DHT22;12611;44.446;26.000;2023-02-28T13:55:56;10.70;80.90
24426;DHT22;12611;44.446;26.000;2023-02-28T13:58:38;10.70;80.80
24426;DHT22;12611;44.446;26.000;2023-02-28T14:01:25;10.70;81.00
24426;DHT22;12611;44.446;26.000;2023-02-28T14:04:28;10.60;81.10
24426;DHT22;12611;44.446;26.000;2023-02-28T14:07:02;10.60;81.20
24426;DHT22;12611;44.446;26.000;2023-02-28T14:09:33;10.60;81.00
24426;DHT22;12611;44.446;26.000;2023-02-28T14:15:17;10.70;81.10
24426;DHT22;12611;44.446;26.000;2023-02-28T14:17:53;10.70;81.00
24426;DHT22;12611;44.446;26.000;2023-02-28T14:20:27;10.70;81.00
24426;DHT22;12611;44.446;26.000;2023-02-28T14:23:03;10.70;80.90
24426;DHT22;12611;44.446;26.000;2023-02-28T14:25:36;10.70;80.80
24426;DHT22;12611;44.446;26.000;2023-02-28T14:28:13;10.70;81.70
24426;DHT22;12611;44.446;26.000;2023-02-28T14:30:59;10.70;80.70
24426;DHT22;12611;44.446;26.000;2023-02-28T14:33:42;10.70;80.60
24426;DHT22;12611;44.446;26.000;2023-02-28T14:36:18;10.70;80.70
24426;DHT22;12611;44.446;26.000;2023-02-28T14:38:50;10.70;80.50
24426;DHT22;12611;44.446;26.000;2023-02-28T14:41:23;10.70;80.70
24426;DHT22;12611;44.446;26.000;2023-02-28T14:43:54;10.70;80.80
24426;DHT22;12611;44.446;26.000;2023-02-28T14:46:26;10.60;80.80
24426;DHT22;12611;44.446;26.000;2023-02-28T14:48:57;10.60;81.00
24426;DHT22;12611;44.446;26.000;2023-02-28T14:51:27;10.60;80.90
24426;DHT22;12611;44.446;26.000;2023-02-28T14:53:59;10.60;81.00
24426;DHT22;12611;44.446;26.000;2023-02-28T14:56:34;10.60;81.10
24426;DHT22;12611;44.446;26.000;2023-02-28T14:59:05;10.60;81.20
24426;DHT22;12611;44.446;26.000;2023-02-28T15:01:33;10.60;81.10
24426;DHT22;12611;44.446;26.000;2023-02-28T15:04:04;10.60;81.10
24426;DHT22;12611;44.446;26.000;2023-02-28T15:06:34;10.50;81.20
24426;DHT22;12611;44.446;26.000;2023-02-28T15:09:13;10.40;81.30
24426;DHT22;12611;44.446;26.000;2023-02-28T15:11:46;10.40;81.40
24426;DHT22;12611;44.446;26.000;2023-02-28T15:14:18;10.40;81.60
24426;DHT22;12611;44.446;26.000;2023-02-28T15:16:51;10.40;81.70
24426;DHT22;12611;44.446;26.000;2023-02-28T15:19:22;10.40;81.70
24426;DHT22;12611;44.446;26.000;2023-02-28T15:21:56;10.40;81.80
24426;DHT22;12611;44.446;26.000;2023-02-28T15:24:33;10.40;81.70
24426;DHT22;12611;44.446;26.000;2023-02-28T15:27:06;10.40;81.80
24426;DHT22;12611;44.446;26.000;2023-02-28T15:29:43;10.30;81.90
24426;DHT22;12611;44.446;26.000;2023-02-28T15:32:24;10.30;81.90
24426;DHT22;12611;44.446;26.000;2023-02-28T15:34:54;10.30;81.90
24426;DHT22;12611;44.446;26.000;2023-02-28T15:37:45;10.40;82.00
24426;DHT22;12611;44.446;26.000;2023-02-28T15:40:17;10.40;82.10
24426;DHT22;12611;44.446;26.000;2023-02-28T15:43:05;10.40;81.90
24426;DHT22;12611;44.446;26.000;2023-02-28T15:45:37;10.40;81.90
24426;DHT22;12611;44.446;26.000;2023-02-28T15:48:19;10.40;81.90
24426;DHT22;12611;44.446;26.000;2023-02-28T15:50:51;10.40;82.20
24426;DHT22;12611;44.446;26.000;2023-02-28T15:53:24;10.40;82.00
24426;DHT22;12611;44.446;26.000;2023-02-28T15:56:00;10.30;82.20
24426;DHT22;12611;44.446;26.000;2023-02-28T15:58:29;10.30;82.40
24426;DHT22;12611;44.446;26.000;2023-02-28T16:01:17;10.30;82.30
24426;DHT22;12611;44.446;26.000;2023-02-28T16:03:48;10.30;82.30
24426;DHT22;12611;44.446;26.000;2023-02-28T16:06:38;10.30;82.30
24426;DHT22;12611;44.446;26.000;2023-02-28T16:09:13;10.30;82.50
24426;DHT22;12611;44.446;26.000;2023-02-28T16:11:44;10.30;82.30
24426;DHT22;12611;44.446;26.000;2023-02-28T16:14:16;10.20;82.60
24426;DHT22;12611;44.446;26.000;2023-02-28T16:16:47;10.20;82.70